Flight Track Log - Related Links

Times and Time Zones

All times are in EDT time to prevent confusion due to time zone crossing. See the N478DR flight status page for this flight to view local times or setup timezone preferences in your user account.

Time Position Orientation Groundspeed Altitude Reporting Facility
EDT Latitude Longitude Course Direction KTS MPH feet Rate Location/Type
Mon 07:48:44 PM 47.4142 -122.3169 173° South 172 198 1,600  Level Seattle Center
Mon 07:49:03 PM 47.3983 -122.3142 173° South 176 203 2,400 2,250 Climbing Seattle Center
Mon 07:50:04 PM 47.3436 -122.3083 176° South 210 242 4,600 1,864 Climbing Seattle Center
Mon 07:50:46 PM 47.3314 -122.2403 105° East 266 306 5,600 2,272 Climbing Seattle Center
Mon 07:51:47 PM 47.3569 -122.1139 73° East 303 349 8,500 2,459 Climbing Seattle Center
Mon 07:52:48 PM 47.3806 -121.9989 73° East 297 342 10,600 2,016 Climbing Seattle Center
Mon 07:53:49 PM 47.4031 -121.8742 75° East 314 361 12,600 2,000 Climbing Seattle Center
Mon 07:54:51 PM 47.4281 -121.7297 76° East 335 386 14,700 1,659 Climbing Seattle Center
Mon 07:55:52 PM 47.4278 -121.5819 90° East 363 418 16,000 1,328 Climbing Seattle Center
Mon 07:56:53 PM 47.4264 -121.4286 91° East 375 432 17,400 1,328 Climbing Seattle Center
Mon 07:57:54 PM 47.4219 -121.2706 92° East 384 442 18,700 1,279 Climbing Seattle Center
Mon 07:58:55 PM 47.4203 -121.1122 91° East 390 449 20,000 1,230 Climbing Seattle Center
Mon 07:59:56 PM 47.4167 -120.9497 92° East 399 459 21,200 1,082 Climbing Seattle Center
Mon 08:00:57 PM 47.4150 -120.7969 91° East 403 464 22,200 1,082 Climbing Seattle Center
Mon 08:01:58 PM 47.4108 -120.6294 92° East 409 471 23,400 1,279 Climbing Seattle Center
Mon 08:02:59 PM 47.4072 -120.4286 91° East 411 473 24,800 1,171 Climbing Seattle Center
Mon 08:04:01 PM 47.4022 -120.2611 92° East 411 473 25,800 976 Climbing Seattle Center
Mon 08:05:02 PM 47.3983 -120.0897 92° East 416 479 26,800 934 Climbing Seattle Center
Mon 08:06:03 PM 47.3919 -119.9164 93° East 423 487 27,700 836 Climbing Seattle Center
Mon 08:07:04 PM 47.3861 -119.7417 93° East 428 493 28,500 787 Climbing Seattle Center
Mon 08:08:05 PM 47.3808 -119.5636 92° East 434 499 29,300 689 Climbing Seattle Center
Mon 08:09:06 PM 47.3769 -119.3828 92° East 438 504 29,900 537 Climbing Seattle Center
Mon 08:10:08 PM 47.3861 -119.1983 86° East 448 516 30,400 537 Climbing Seattle Center
Mon 08:11:09 PM 47.3925 -119.0136 87° East 452 520 31,000 541 Climbing Seattle Center
Mon 08:12:10 PM 47.3981 -118.8250 87° East 461 531 31,500 590 Climbing Seattle Center
Mon 08:13:11 PM 47.4150 -118.5989 84° East 463 533 32,200 590 Climbing Seattle Center
Mon 08:14:12 PM 47.4253 -118.4094 85° East 465 535 32,700 541 Climbing Seattle Center
Mon 08:15:13 PM 47.4375 -118.2214 84° East 464 534 33,300 541 Climbing Seattle Center
Mon 08:16:14 PM 47.4483 -118.0358 85° East 458 527 33,800 492 Climbing Seattle Center
Mon 08:17:15 PM 47.4611 -117.8503 84° East 456 525 34,300 683 Climbing Seattle Center
Mon 08:18:17 PM 47.4622 -117.6664 89° East 450 518 35,200 976 Climbing Seattle Center
Mon 08:19:18 PM 47.4544 -117.4931 94° East 431 496 36,300 885 Climbing Seattle Center
Mon 08:20:19 PM 47.4497 -117.3253 92° East 417 480 37,000 443 Climbing Seattle Center
Mon 08:21:20 PM 47.4467 -117.1219 91° East 421 484 37,200 295 Climbing Seattle Center
Mon 08:22:21 PM 47.4556 -116.9494 86° East 433 498 37,600 393 Climbing Seattle Center
Mon 08:23:22 PM 47.4669 -116.7811 84° East 424 488 38,000 344 Climbing Seattle Center
Mon 08:24:23 PM 47.4753 -116.6083 86° East 423 487 38,300 293 Climbing Seattle Center
Mon 08:25:25 PM 47.4836 -116.4356 86° East 424 488 38,600 293 Climbing Seattle Center
Mon 08:26:26 PM 47.4922 -116.2631 86° East 423 487 38,900 197 Climbing Seattle Center
Mon 08:27:27 PM 47.4997 -116.0894 86° East 424 488 39,000 49 Climbing Seattle Center
Mon 08:28:28 PM 47.5072 -115.9125 86° East 429 494 39,000  Level Seattle Center
Mon 08:29:29 PM 47.5158 -115.6972 87° East 437 503 39,000  Level Seattle Center
Mon 08:30:30 PM 47.5239 -115.5422 86° East 443 510 39,000  Level Seattle Center
Mon 08:31:31 PM 47.5311 -115.3597 87° East 446 513 39,000  Level Seattle Center
Mon 08:32:32 PM 47.5403 -115.1403 86° East 449 517 39,000  Level Seattle Center
Mon 08:33:33 PM 47.5464 -114.9556 87° East 452 520 39,000  Level Seattle Center
Mon 08:34:23 PM 47.5511 -114.8072 87° East 455 524 39,000  Level Salt Lake Center
Mon 08:35:25 PM 47.5583 -114.6203 87° East 459 528 39,000  Level Salt Lake Center
Mon 08:36:27 PM 47.5631 -114.4331 88° East 459 528 39,000  Level Salt Lake Center
Mon 08:37:28 PM 47.5692 -114.2456 87° East 462 532 39,000 -49 Level Salt Lake Center
Mon 08:38:30 PM 47.5758 -114.0194 87° East 464 534 38,900  Descending Salt Lake Center
Mon 08:39:32 PM 47.5808 -113.8306 88° East 464 534 39,000 48 Climbing Salt Lake Center
Mon 08:40:34 PM 47.5847 -113.6406 88° East 465 535 39,000  Level Salt Lake Center
Mon 08:41:36 PM 47.5897 -113.4525 88° East 461 531 39,000  Level Salt Lake Center
Mon 08:43:00 PM 47.5853 -113.2086 88° East  Level FlightAware Approximate
Mon 08:43:39 PM 47.5986 -113.0794 89° East 455 524 39,000  Level Salt Lake Center
Mon 08:44:41 PM 47.6006 -112.8736 89° East 456 525 39,000  Level Salt Lake Center
Mon 08:45:42 PM 47.6039 -112.6883 88° East 452 520 39,000 -49 Level Salt Lake Center
Mon 08:46:44 PM 47.6064 -112.5028 89° East 452 520 38,900  Descending Salt Lake Center
Mon 08:47:46 PM 47.6089 -112.2789 89° East 455 524 39,000 48 Climbing Salt Lake Center
Mon 08:48:48 PM 47.6125 -112.0919 88° East 456 525 39,000  Level Salt Lake Center
Mon 08:49:49 PM 47.6136 -111.9056 89° East 455 524 39,000  Level Salt Lake Center
Mon 08:50:00 PM 47.5998 -111.9903 89° East  Level FlightAware Approximate
Mon 08:50:51 PM 47.6150 -111.7186 89° East 456 525 39,000  Level Salt Lake Center
Mon 08:51:53 PM 47.6158 -111.5308 90° East 458 527 39,000  Level Salt Lake Center
Mon 08:52:54 PM 47.6164 -111.3233 90° East 462 532 39,000  Level Salt Lake Center
Mon 08:53:56 PM 47.6189 -111.1311 89° East 463 533 39,000  Level Salt Lake Center
Mon 08:54:58 PM 47.6183 -110.9417 90° East 462 532 39,000  Level Salt Lake Center
Mon 08:55:59 PM 47.6181 -110.7533 90° East 458 527 39,000  Level Salt Lake Center
Mon 08:57:01 PM 47.6183 -110.5631 90° East 462 532 39,000  Level Salt Lake Center
Mon 08:58:02 PM 47.6169 -110.3764 91° East 457 526 39,000  Level Salt Lake Center
Mon 08:59:04 PM 47.6150 -110.1525 91° East 454 522 39,000  Level Salt Lake Center
Mon 09:00:06 PM 47.6131 -109.9628 91° East 459 528 39,000  Level Salt Lake Center
Mon 09:01:07 PM 47.6136 -109.7739 90° East 460 529 39,000  Level Salt Lake Center
Mon 09:02:09 PM 47.6128 -109.5836 90° East 462 532 39,000  Level Salt Lake Center
Mon 09:03:10 PM 47.6108 -109.3939 91° East 464 534 39,000  Level Salt Lake Center
Mon 09:04:12 PM 47.6069 -109.2036 92° East 464 534 39,000  Level Salt Lake Center
Mon 09:05:14 PM 47.5914 -109.0158 97° East 462 532 39,000 -49 Level Salt Lake Center
Mon 09:06:15 PM 47.5783 -108.8267 96° East 462 532 38,900 -49 Descending Salt Lake Center
Mon 09:07:17 PM 47.5764 -108.5975 91° East 465 535 38,900 49 Level Salt Lake Center
Mon 09:08:18 PM 47.5728 -108.4097 92° East 462 532 39,000 49 Climbing Salt Lake Center
Mon 09:09:20 PM 47.5683 -108.2253 92° East 454 522 39,000  Level Salt Lake Center
Mon 09:10:22 PM 47.5639 -108.0439 92° East 446 513 39,000  Level Salt Lake Center
Mon 09:11:23 PM 47.5597 -107.8633 92° East 441 507 39,000  Level Salt Lake Center
Mon 09:12:25 PM 47.5556 -107.6833 92° East 441 507 39,000  Level Salt Lake Center
Mon 09:13:26 PM 47.5497 -107.5031 93° East 440 506 39,000 -49 Level Salt Lake Center
Mon 09:14:28 PM 47.5439 -107.2931 92° East 442 509 38,900  Descending Salt Lake Center
Mon 09:15:29 PM 47.5369 -107.1094 93° East 446 513 39,000 49 Climbing Salt Lake Center
Mon 09:16:31 PM 47.5308 -106.9272 93° East 446 513 39,000  Level Salt Lake Center
Mon 09:17:32 PM 47.5256 -106.7431 92° East 449 517 39,000  Level Salt Lake Center
Mon 09:18:34 PM 47.5175 -106.5567 94° East 454 522 39,000  Level Salt Lake Center
Mon 09:19:35 PM 47.5097 -106.3731 94° East 451 519 39,000  Level Salt Lake Center
Mon 09:20:37 PM 47.5039 -106.1886 93° East 450 518 39,000  Level Salt Lake Center
Mon 09:21:38 PM 47.4953 -105.9661 93° East 453 521 39,000  Level Salt Lake Center
Mon 09:22:40 PM 47.4875 -105.7797 93° East 455 524 39,000  Level Salt Lake Center
Mon 09:23:41 PM 47.4806 -105.5900 93° East 454 522 39,000  Level Salt Lake Center
Mon 09:24:42 PM 47.4711 -105.4094 94° East 453 521 39,000  Level Salt Lake Center
Mon 09:25:44 PM 47.4628 -105.2236 94° East 456 525 39,000  Level Salt Lake Center
Mon 09:26:45 PM 47.4539 -105.0381 94° East 456 525 39,000  Level Salt Lake Center
Mon 09:27:47 PM 47.4431 -104.8514 95° East 456 525 39,000  Level Salt Lake Center
Mon 09:28:48 PM 47.4342 -104.6653 94° East 457 526 39,000  Level Salt Lake Center
Mon 09:29:50 PM 47.4233 -104.4433 94° East 457 526 39,000  Level Salt Lake Center
Mon 09:30:51 PM 47.4125 -104.2556 95° East 458 527 39,000  Level Salt Lake Center
Mon 09:31:52 PM 47.4017 -104.0694 95° East 460 529 39,000  Level Salt Lake Center
Mon 09:32:54 PM 47.3894 -103.8833 95° East 461 531 39,000  Level Salt Lake Center
Mon 09:33:55 PM 47.3792 -103.6961 95° East 463 533 39,000  Level Salt Lake Center
Mon 09:34:57 PM 47.3678 -103.5094 95° East 464 534 39,000  Level Salt Lake Center
Mon 09:35:58 PM 47.3544 -103.2872 95° East 462 532 39,000 -49 Level Salt Lake Center
Mon 09:37:00 PM 47.3439 -103.1006 95° East 461 531 38,900  Descending Salt Lake Center
Mon 09:38:01 PM 47.3308 -102.9139 96° East 460 529 39,000 49 Climbing Salt Lake Center
Mon 09:39:03 PM 47.3175 -102.7281 96° East 460 529 39,000  Level Salt Lake Center
Mon 09:39:41 PM 47.3136 -102.6539 94° East 460 529 39,000  Level Minneapolis Center
Mon 09:40:43 PM 47.2978 -102.4300 96° East 461 531 39,000  Level Minneapolis Center
Mon 09:41:45 PM 47.2806 -102.2003 96° East 462 532 39,000  Level Minneapolis Center
Mon 09:42:47 PM 47.2681 -102.0161 96° East 464 534 39,000  Level Minneapolis Center
Mon 09:43:48 PM 47.2531 -101.8289 97° East 464 534 39,000  Level Minneapolis Center
Mon 09:44:50 PM 47.2381 -101.6419 97° East 462 532 39,000  Level Minneapolis Center
Mon 09:45:51 PM 47.2231 -101.4539 97° East 464 534 39,000  Level Minneapolis Center
Mon 09:46:53 PM 47.2117 -101.2628 95° East 468 539 39,000  Level Minneapolis Center
Mon 09:47:54 PM 47.1958 -101.0750 97° East 465 535 39,000  Level Minneapolis Center
Mon 09:48:55 PM 47.1739 -100.8692 99° East 466 536 39,000  Level Minneapolis Center
Mon 09:49:57 PM 47.1572 -100.6817 97° East 466 536 39,000  Level Minneapolis Center
Mon 09:50:58 PM 47.1417 -100.4936 97° East 465 535 39,000  Level Minneapolis Center
Mon 09:52:00 PM 47.1242 -100.3061 98° East 465 535 39,000  Level Minneapolis Center
Mon 09:53:01 PM 47.0989 -100.0850 99° East 462 532 39,000  Level Minneapolis Center
Mon 09:54:02 PM 47.0636 -99.9025 106° East 464 534 39,000  Level Minneapolis Center
Mon 09:55:04 PM 47.0319 -99.7206 104° East 464 534 39,000  Level Minneapolis Center
Mon 09:56:05 PM 46.9986 -99.5386 105° East 463 533 39,000  Level Minneapolis Center
Mon 09:57:06 PM 46.9725 -99.3950 105° East 462 532 39,000  Level Minneapolis Center
Mon 09:58:08 PM 46.9331 -99.1825 105° East 458 527 39,000  Level Minneapolis Center
Mon 09:59:09 PM 46.9008 -99.0044 105° East 457 526 39,000  Level Minneapolis Center
Mon 10:00:11 PM 46.8667 -98.8272 106° East 456 525 39,000  Level Minneapolis Center
Mon 10:01:12 PM 46.8247 -98.6156 106° East 456 525 39,000  Level Minneapolis Center
Mon 10:02:13 PM 46.7908 -98.4400 106° East 454 522 39,000  Level Minneapolis Center
Mon 10:03:15 PM 46.7561 -98.2644 106° East 454 522 39,000  Level Minneapolis Center
Mon 10:04:16 PM 46.7222 -98.0894 106° East 453 521 39,000  Level Minneapolis Center
Mon 10:05:17 PM 46.6869 -97.9125 106° East 455 524 39,000  Level Minneapolis Center
Mon 10:06:18 PM 46.6583 -97.7728 107° East 454 522 39,000  Level Minneapolis Center
Mon 10:07:20 PM 46.6156 -97.5628 106° East 455 524 39,000  Level Minneapolis Center
Mon 10:08:21 PM 46.5803 -97.3875 106° East 455 524 39,000  Level Minneapolis Center
Mon 10:09:22 PM 46.5367 -97.1753 107° East 459 528 39,000  Level Minneapolis Center
Mon 10:10:23 PM 46.4997 -97.0008 107° East 457 526 39,000  Level Minneapolis Center
Mon 10:11:24 PM 46.4631 -96.8256 107° East 456 525 39,000  Level Minneapolis Center
Mon 10:12:26 PM 46.4261 -96.6506 107° East 457 526 39,000  Level Minneapolis Center
Mon 10:13:27 PM 46.3894 -96.4756 107° East 456 525 39,000  Level Minneapolis Center
Mon 10:14:28 PM 46.3517 -96.3039 108° East 452 520 39,000  Level Minneapolis Center
Mon 10:15:29 PM 46.3147 -96.1303 107° East 452 520 39,000  Level Minneapolis Center
Mon 10:16:30 PM 46.2769 -95.9589 108° East 451 519 39,000  Level Minneapolis Center
Mon 10:17:32 PM 46.2358 -95.7761 108° East 446 513 39,000 -49 Level Minneapolis Center
Mon 10:18:33 PM 46.1986 -95.6042 107° East 448 516 38,900 -295 Descending Minneapolis Center
Mon 10:19:34 PM 46.1592 -95.4319 108° East 451 519 38,400 -541 Descending Minneapolis Center
Mon 10:20:35 PM 46.1194 -95.2539 108° East 461 531 37,800 -689 Descending Minneapolis Center
Mon 10:21:36 PM 46.0731 -95.0494 108° East 467 537 37,000 -1,180 Descending Minneapolis Center
Mon 10:22:37 PM 46.0325 -94.8744 108° East 465 535 35,400 -1,610 Descending Minneapolis Center
Mon 10:23:39 PM 45.9911 -94.6986 109° East 464 534 33,700 -2,146 Descending Minneapolis Center
Mon 10:24:40 PM 45.9333 -94.5339 117° Southeast 470 541 31,000 -3,246 Descending Minneapolis Center
Mon 10:25:41 PM 45.8689 -94.3761 120° Southeast 462 532 27,100 -3,787 Descending Minneapolis Center
Mon 10:26:42 PM 45.8042 -94.2200 121° Southeast 457 526 23,300 -3,610 Descending Minneapolis Center
Mon 10:27:44 PM 45.7403 -94.0661 121° Southeast 453 521 19,700 -3,463 Descending Minneapolis Center
Mon 10:28:45 PM 45.6800 -93.9197 120° Southeast 431 496 16,200 -3,295 Descending Minneapolis Center
Mon 10:29:46 PM 45.6244 -93.7869 121° Southeast 396 456 13,000 -3,393 Descending Minneapolis Center
Mon 10:30:47 PM 45.5606 -93.6364 121° Southeast 369 425 9,300 -2,656 Descending Minneapolis Center
Mon 10:31:48 PM 45.5017 -93.5536 135° Southeast 297 342 7,600 -1,561 Descending Minneapolis Center
Mon 10:32:50 PM 45.4353 -93.4950 148° Southeast 281 323 6,100 -1,171 Descending Minneapolis Center
Mon 10:33:51 PM 45.3700 -93.4392 149° Southeast 275 316 5,200 -836 Descending Minneapolis Center
Mon 10:34:52 PM 45.3061 -93.3864 150° Southeast 268 308 4,400 -590 Descending Minneapolis Center
Mon 10:35:53 PM 45.2431 -93.3350 150° Southeast 263 303 4,000 -148 Descending Minneapolis Center
Mon 10:36:54 PM 45.1803 -93.2833 150° Southeast 261 300 4,100 -240 Climbing Minneapolis Center
Mon 10:37:58 PM 45.1178 -93.2322 150° Southeast 259 298 3,500 -336 Descending Minneapolis Center
Mon 10:38:59 PM 45.0675 -93.1872 148° Southeast 210 242 3,400 -443 Descending Minneapolis Center
Mon 10:40:00 PM 45.0222 -93.1436 146° Southeast 161 185 2,600 -738 Descending Minneapolis Center
Mon 10:41:01 PM 44.9906 -93.1142 147° Southeast 137 158 1,900 -639 Descending Minneapolis Center
Mon 10:42:02 PM 44.9650 -93.0892 145° Southeast 113 130 1,300 -492 Descending Minneapolis Center
Mon 10:43:03 PM 44.9431 -93.0706 149° Southeast 107 123 900 -393 Descending Minneapolis Center
Mon 10:45:00 PM 44.9333 -93.0500 109° East  Level FlightAware Approximate

Login

Don't have an account? Register now (free) for customized features, flight alerts, and more!